createdAt,value
2019-03-06T00:01:20.999Z,14.50
2019-03-06T00:04:01.827Z,15.50
2019-03-06T00:06:42.702Z,14.67
2019-03-06T00:09:23.448Z,13.50
2019-03-06T00:12:04.127Z,15.93
2019-03-06T00:14:44.474Z,14.90
2019-03-06T00:17:25.633Z,16.30
2019-03-06T00:20:06.991Z,15.13
2019-03-06T00:22:35.713Z,15.67
2019-03-06T00:25:06.186Z,17.20
2019-03-06T00:27:34.662Z,16.17
2019-03-06T00:30:04.881Z,15.53
2019-03-06T00:32:33.346Z,17.23
2019-03-06T00:35:02.819Z,17.10
2019-03-06T00:37:32.326Z,15.50
2019-03-06T00:40:02.491Z,14.90
2019-03-06T00:42:32.694Z,17.13
2019-03-06T00:45:01.168Z,15.73
2019-03-06T00:47:29.699Z,15.27
2019-03-06T00:49:58.289Z,16.40
2019-03-06T00:52:26.790Z,16.40
2019-03-06T00:54:55.311Z,17.50
2019-03-06T00:57:23.807Z,16.50
2019-03-06T00:59:52.315Z,17.67
2019-03-06T01:02:20.780Z,17.17
2019-03-06T01:04:49.292Z,17.50
2019-03-06T01:07:17.760Z,18.80
2019-03-06T01:09:46.456Z,18.23
2019-03-06T01:12:15.019Z,16.87
2019-03-06T01:14:43.563Z,18.27
2019-03-06T01:17:12.096Z,17.03
2019-03-06T01:19:40.544Z,17.70
2019-03-06T01:22:09.011Z,20.67
2019-03-06T01:24:38.605Z,20.67
2019-03-06T01:27:07.283Z,19.40
2019-03-06T01:29:35.767Z,21.27
2019-03-06T01:32:04.431Z,18.80
2019-03-06T01:34:49.580Z,15.90
2019-03-06T01:37:19.742Z,18.30
2019-03-06T01:39:49.862Z,17.80
2019-03-06T01:42:22.679Z,18.57
2019-03-06T01:44:51.573Z,19.40
2019-03-06T01:47:20.050Z,19.57
2019-03-06T01:49:48.575Z,20.90
2019-03-06T01:52:17.017Z,18.07
2019-03-06T01:54:45.470Z,20.57
2019-03-06T01:57:14.296Z,19.77
2019-03-06T01:59:42.869Z,19.70
2019-03-06T02:02:11.327Z,19.63
2019-03-06T02:04:39.939Z,17.40
2019-03-06T02:07:08.849Z,18.70
2019-03-06T02:09:37.580Z,19.47
2019-03-06T02:12:07.149Z,18.50
2019-03-06T02:14:35.710Z,17.60
2019-03-06T02:17:04.558Z,16.80
2019-03-06T02:19:33.157Z,17.20
2019-03-06T02:22:01.612Z,19.20
2019-03-06T02:24:30.145Z,16.13
2019-03-06T02:26:58.621Z,17.33
2019-03-06T02:29:27.080Z,16.80
2019-03-06T02:31:55.554Z,17.40
2019-03-06T02:34:24.065Z,18.40
2019-03-06T02:36:52.559Z,16.50
2019-03-06T02:39:21.134Z,16.90
2019-03-06T02:41:49.595Z,16.60
2019-03-06T02:44:18.071Z,17.03
2019-03-06T02:46:46.718Z,16.50
2019-03-06T02:49:15.548Z,15.40
2019-03-06T02:51:44.016Z,15.83
2019-03-06T02:54:12.460Z,15.57
2019-03-06T02:56:40.979Z,15.63
2019-03-06T02:59:13.471Z,15.30
2019-03-06T03:01:46.971Z,15.17
2019-03-06T03:04:17.103Z,14.90
2019-03-06T03:06:47.262Z,14.23
2019-03-06T03:09:17.745Z,15.23
2019-03-06T03:11:46.345Z,14.67
2019-03-06T03:14:14.953Z,14.70
2019-03-06T03:16:43.487Z,14.63
2019-03-06T03:19:12.113Z,14.60
2019-03-06T03:21:40.631Z,14.70
2019-03-06T03:24:09.160Z,13.77
2019-03-06T03:26:37.851Z,12.93
2019-03-06T03:29:06.386Z,13.27
2019-03-06T03:31:34.827Z,12.63
2019-03-06T03:34:03.590Z,12.30
2019-03-06T03:36:32.112Z,11.23
2019-03-06T03:39:00.584Z,12.33
2019-03-06T03:41:29.029Z,11.70
2019-03-06T03:43:57.574Z,13.53
2019-03-06T03:46:26.015Z,12.57
2019-03-06T03:48:54.555Z,13.40
2019-03-06T03:51:22.998Z,14.30
2019-03-06T03:53:51.708Z,12.10
2019-03-06T03:56:20.237Z,14.67
2019-03-06T03:58:48.794Z,13.60
2019-03-06T04:01:17.441Z,13.63
2019-03-06T04:03:46.152Z,12.07
2019-03-06T04:06:14.821Z,13.57
2019-03-06T04:08:43.306Z,13.60
2019-03-06T04:11:11.784Z,13.37
2019-03-06T04:13:40.448Z,10.93
2019-03-06T04:16:08.885Z,11.40
2019-03-06T04:18:37.368Z,11.93
2019-03-06T04:21:05.868Z,11.40
2019-03-06T04:23:34.487Z,12.10
2019-03-06T04:26:03.049Z,13.50
2019-03-06T04:28:31.586Z,12.57
2019-03-06T04:31:00.033Z,12.83
2019-03-06T04:33:28.792Z,11.10
2019-03-06T04:35:57.243Z,10.60
2019-03-06T04:38:25.750Z,12.70
2019-03-06T04:40:54.226Z,11.70
2019-03-06T04:43:22.681Z,12.97
2019-03-06T04:45:51.160Z,11.93
2019-03-06T04:48:19.691Z,12.10
2019-03-06T04:50:48.239Z,12.10
2019-03-06T04:53:16.760Z,11.87
2019-03-06T04:55:45.242Z,12.07
2019-03-06T04:58:13.681Z,13.00
2019-03-06T05:00:42.164Z,13.00
2019-03-06T05:03:10.619Z,11.00
2019-03-06T05:05:39.113Z,11.13
2019-03-06T05:08:07.621Z,12.07
2019-03-06T05:10:36.114Z,12.50
2019-03-06T05:13:04.732Z,12.37
2019-03-06T05:15:33.282Z,12.43
2019-03-06T05:18:15.136Z,11.10
2019-03-06T05:20:43.693Z,11.87
2019-03-06T05:23:12.423Z,11.97
2019-03-06T05:25:40.901Z,11.47
2019-03-06T05:28:09.370Z,12.83
2019-03-06T05:30:37.842Z,11.60
2019-03-06T05:33:25.629Z,12.97
2019-03-06T05:36:32.727Z,13.80
2019-03-06T05:39:20.680Z,13.20
2019-03-06T05:42:08.481Z,13.30
2019-03-06T05:44:57.980Z,13.20
2019-03-06T05:47:45.776Z,11.47
2019-03-06T05:50:33.806Z,9.27
2019-03-06T05:53:21.590Z,9.37
2019-03-06T05:56:02.094Z,10.10
2019-03-06T05:58:42.813Z,10.20
2019-03-06T06:01:23.464Z,10.80
2019-03-06T06:04:04.247Z,10.53
2019-03-06T06:06:45.220Z,9.90
2019-03-06T06:09:26.146Z,10.23
2019-03-06T06:12:07.250Z,11.57
2019-03-06T06:14:47.927Z,9.67
2019-03-06T06:17:28.875Z,11.40
2019-03-06T06:20:09.676Z,10.03
2019-03-06T06:25:45.338Z,10.97
2019-03-06T06:28:25.978Z,12.33
2019-03-06T06:31:06.939Z,11.53
2019-03-06T06:33:48.003Z,11.50
2019-03-06T06:36:28.735Z,11.27
2019-03-06T06:39:07.523Z,9.93
2019-03-06T06:41:55.368Z,10.40
2019-03-06T06:44:44.868Z,9.80
2019-03-06T06:47:32.652Z,9.57
2019-03-06T06:50:20.418Z,9.97
2019-03-06T06:53:27.555Z,9.50
2019-03-06T06:56:07.766Z,8.97
2019-03-06T07:02:07.266Z,9.80
2019-03-06T07:04:52.336Z,11.03
2019-03-06T07:07:51.797Z,11.30
2019-03-06T07:16:45.575Z,11.20
2019-03-06T07:19:52.561Z,14.07
2019-03-06T07:22:59.543Z,14.40
2019-03-06T07:26:06.522Z,12.07
2019-03-06T07:29:13.503Z,12.43
2019-03-06T07:32:20.644Z,15.10
2019-03-06T07:35:46.958Z,10.80
2019-03-06T07:38:34.833Z,11.93
2019-03-06T07:41:41.805Z,11.80
2019-03-06T07:47:43.800Z,11.37
2019-03-06T07:50:50.774Z,7.30
2019-03-06T07:54:17.086Z,9.80
2019-03-06T07:57:16.857Z,8.27
2019-03-06T07:59:57.595Z,5.90
2019-03-06T08:02:38.577Z,6.20
2019-03-06T08:05:19.243Z,7.10
2019-03-06T08:08:00.070Z,6.67
2019-03-06T08:10:41.635Z,8.10
2019-03-06T08:13:23.817Z,6.80
2019-03-06T08:16:06.478Z,7.23
2019-03-06T08:18:52.280Z,4.70
2019-03-06T08:21:37.502Z,5.33
2019-03-06T08:24:25.198Z,3.97
2019-03-06T08:27:13.020Z,4.20
2019-03-06T08:30:00.850Z,3.23
2019-03-06T08:32:49.015Z,4.23
2019-03-06T08:35:36.800Z,3.33
2019-03-06T08:38:24.634Z,4.70
2019-03-06T08:41:12.426Z,3.70
2019-03-06T08:44:00.194Z,3.80
2019-03-06T08:47:07.172Z,3.13
2019-03-06T08:50:14.144Z,4.10
2019-03-06T08:53:21.104Z,3.70
2019-03-06T08:56:21.452Z,3.50
2019-03-06T08:59:21.020Z,4.00
2019-03-06T09:02:03.299Z,3.53
2019-03-06T09:04:45.112Z,4.00
2019-03-06T09:07:27.696Z,3.57
2019-03-06T09:10:10.119Z,3.00
2019-03-06T09:13:10.519Z,3.93
2019-03-06T09:16:10.764Z,3.60
2019-03-06T09:18:53.501Z,3.80
2019-03-06T09:21:53.502Z,3.73
2019-03-06T09:24:36.096Z,4.47
2019-03-06T09:27:18.547Z,3.70
2019-03-06T09:33:10.572Z,3.93
2019-03-06T09:35:55.544Z,3.50
2019-03-06T09:41:49.384Z,4.40
2019-03-06T09:44:48.938Z,3.50
2019-03-06T09:47:36.568Z,3.47
2019-03-06T09:50:45.031Z,3.80
2019-03-06T09:56:06.600Z,2.93
2019-03-06T09:59:06.859Z,3.07
2019-03-06T10:01:49.358Z,3.07
2019-03-06T10:04:32.066Z,2.27
2019-03-06T10:07:14.190Z,2.83
2019-03-06T10:09:59.157Z,2.70
2019-03-06T10:12:47.338Z,2.33
2019-03-06T10:15:24.303Z,1.97
2019-03-06T10:18:06.884Z,2.70
2019-03-06T10:20:47.160Z,2.10
2019-03-06T10:23:28.124Z,1.73
2019-03-06T10:26:08.903Z,2.57
2019-03-06T10:28:49.698Z,2.23
2019-03-06T10:31:30.623Z,1.60
2019-03-06T10:34:11.485Z,1.80
2019-03-06T10:36:52.535Z,1.93
2019-03-06T10:39:32.691Z,2.20
2019-03-06T10:42:13.693Z,1.80
2019-03-06T10:44:54.556Z,1.77
2019-03-06T10:47:22.982Z,2.10
2019-03-06T10:50:31.223Z,2.53
2019-03-06T10:53:19.579Z,2.43
2019-03-06T10:55:59.948Z,2.03
2019-03-06T10:58:40.947Z,1.90
2019-03-06T11:01:21.523Z,2.10
2019-03-06T11:04:06.681Z,1.90
2019-03-06T11:06:47.007Z,1.83
2019-03-06T11:09:15.569Z,1.43
2019-03-06T11:12:03.439Z,1.97
2019-03-06T11:14:52.997Z,1.80
2019-03-06T11:17:40.848Z,1.73
2019-03-06T11:20:49.659Z,1.80
2019-03-06T11:23:37.445Z,1.67
2019-03-06T11:26:25.303Z,1.53
2019-03-06T11:29:13.231Z,1.40
2019-03-06T11:32:01.021Z,1.23
2019-03-06T11:34:48.800Z,1.37
2019-03-06T11:37:36.626Z,1.47
2019-03-06T11:40:24.445Z,1.37
2019-03-06T11:43:12.495Z,1.20
2019-03-06T11:46:00.349Z,1.20
2019-03-06T11:48:49.899Z,1.70
2019-03-06T11:51:37.696Z,1.20
2019-03-06T11:54:18.054Z,1.23
2019-03-06T11:56:58.855Z,1.10
2019-03-06T11:59:39.707Z,1.60
2019-03-06T12:02:20.666Z,1.30
2019-03-06T12:05:01.116Z,1.40
2019-03-06T12:07:41.851Z,1.40
2019-03-06T12:10:22.892Z,1.47
2019-03-06T12:13:03.755Z,1.30
2019-03-06T12:15:44.600Z,1.27
2019-03-06T12:18:25.323Z,1.10
2019-03-06T12:21:06.428Z,1.20
2019-03-06T12:23:47.096Z,1.07
2019-03-06T12:26:27.976Z,0.97
2019-03-06T12:29:08.743Z,1.40
2019-03-06T12:31:49.256Z,1.13
2019-03-06T12:34:30.184Z,1.50
2019-03-06T12:37:11.125Z,1.17
2019-03-06T12:39:52.080Z,1.13
2019-03-06T12:42:33.130Z,1.03
2019-03-06T12:45:14.053Z,1.47
2019-03-06T12:47:55.828Z,1.10
2019-03-06T12:50:36.617Z,0.90
2019-03-06T12:53:17.420Z,1.10
2019-03-06T12:55:58.288Z,1.00
2019-03-06T12:58:38.759Z,1.03
2019-03-06T13:01:19.647Z,1.00
2019-03-06T13:04:00.392Z,1.67
2019-03-06T13:06:40.955Z,1.10
2019-03-06T13:09:21.832Z,1.00
2019-03-06T13:12:02.324Z,1.30
2019-03-06T13:14:43.260Z,0.90
2019-03-06T13:17:24.219Z,1.00
2019-03-06T13:20:04.982Z,1.00
2019-03-06T13:22:46.061Z,1.00
2019-03-06T13:25:26.929Z,0.97
2019-03-06T13:28:07.809Z,1.20
2019-03-06T13:30:48.791Z,0.90
2019-03-06T13:33:34.191Z,1.30
2019-03-06T13:36:15.235Z,1.30
2019-03-06T13:39:05.730Z,0.90
2019-03-06T13:41:38.489Z,1.07
2019-03-06T13:44:19.141Z,0.83
2019-03-06T13:46:59.724Z,1.07
2019-03-06T13:49:40.268Z,1.00
2019-03-06T13:52:20.772Z,1.20
2019-03-06T13:55:01.416Z,0.87
2019-03-06T13:57:44.271Z,1.00
2019-03-06T14:00:24.309Z,1.10
2019-03-06T14:03:04.937Z,2.20
2019-03-06T14:05:45.631Z,1.30
2019-03-06T14:08:26.290Z,1.37
2019-03-06T14:11:06.696Z,1.20
2019-03-06T14:13:47.697Z,1.30
2019-03-06T14:16:28.295Z,1.30
2019-03-06T14:19:08.584Z,1.23
2019-03-06T14:21:49.447Z,1.17
2019-03-06T14:24:30.085Z,1.27
2019-03-06T14:27:11.044Z,1.13
2019-03-06T14:29:51.762Z,1.50
2019-03-06T14:32:32.464Z,1.13
2019-03-06T14:35:13.442Z,1.23
2019-03-06T14:37:53.880Z,1.20
2019-03-06T14:40:34.740Z,1.20
2019-03-06T14:43:15.661Z,1.30
2019-03-06T14:45:56.157Z,1.50
2019-03-06T14:48:37.052Z,1.67
2019-03-06T14:51:18.104Z,1.40
2019-03-06T14:53:58.839Z,1.67
2019-03-06T14:56:39.816Z,1.57
2019-03-06T14:59:20.111Z,1.30
2019-03-06T15:02:01.000Z,1.43
2019-03-06T15:04:41.997Z,1.50
2019-03-06T15:07:22.255Z,1.37
2019-03-06T15:10:03.102Z,1.90
2019-03-06T15:12:43.882Z,1.30
2019-03-06T15:15:24.835Z,1.70
2019-03-06T15:18:10.522Z,1.50
2019-03-06T15:20:48.629Z,1.90
2019-03-06T15:23:29.423Z,1.73
2019-03-06T15:26:10.036Z,1.40
2019-03-06T15:28:50.367Z,1.30
2019-03-06T15:31:30.748Z,1.27
2019-03-06T15:34:11.569Z,2.30
2019-03-06T15:36:52.474Z,1.90
2019-03-06T15:39:42.213Z,1.73
2019-03-06T15:42:16.039Z,1.63
2019-03-06T15:44:56.877Z,1.70
2019-03-06T15:47:38.933Z,1.67
2019-03-06T15:50:20.072Z,1.90
2019-03-06T15:53:00.616Z,1.77
2019-03-06T15:55:41.609Z,2.53
2019-03-06T15:58:23.256Z,2.30
2019-03-06T16:01:03.797Z,1.87
2019-03-06T16:03:44.813Z,1.80
2019-03-06T16:06:25.711Z,2.23
2019-03-06T16:09:06.536Z,1.40
2019-03-06T16:11:47.238Z,1.50
2019-03-06T16:14:28.164Z,1.33
2019-03-06T16:17:09.319Z,1.40
2019-03-06T16:19:49.820Z,1.60
2019-03-06T16:22:30.897Z,1.30
2019-03-06T16:25:11.519Z,1.70
2019-03-06T16:27:52.425Z,1.80
2019-03-06T16:30:33.356Z,1.80
2019-03-06T16:33:14.212Z,2.60
2019-03-06T16:35:54.817Z,2.00
2019-03-06T16:38:35.237Z,6.50
2019-03-06T16:41:16.130Z,5.60
2019-03-06T16:43:56.853Z,2.60
2019-03-06T16:46:37.416Z,2.40
2019-03-06T16:49:18.012Z,1.90
2019-03-06T16:51:58.771Z,3.67
2019-03-06T16:54:39.665Z,2.00
2019-03-06T16:57:20.400Z,2.10
2019-03-06T17:00:01.391Z,2.53
2019-03-06T17:02:42.257Z,2.90
2019-03-06T17:05:22.845Z,2.23
2019-03-06T17:08:03.607Z,2.80
2019-03-06T17:10:44.383Z,2.60
2019-03-06T17:13:25.056Z,2.37
2019-03-06T17:16:05.650Z,2.50
2019-03-06T17:18:46.522Z,2.60
2019-03-06T17:21:27.695Z,2.57
2019-03-06T17:23:56.423Z,2.17
2019-03-06T17:26:44.202Z,2.27
2019-03-06T17:29:31.985Z,2.10
2019-03-06T17:32:19.819Z,2.90
2019-03-06T17:35:07.685Z,2.57
2019-03-06T17:37:55.520Z,2.70
2019-03-06T17:40:43.643Z,2.60
2019-03-06T17:43:31.655Z,2.30
2019-03-06T17:46:19.447Z,2.03
2019-03-06T17:49:07.348Z,2.97
2019-03-06T17:51:55.205Z,1.60
2019-03-06T17:54:35.531Z,2.23
2019-03-06T17:57:16.200Z,2.10
2019-03-06T17:59:57.361Z,2.50
2019-03-06T18:02:38.100Z,2.37
2019-03-06T18:05:19.156Z,2.60
2019-03-06T18:08:00.259Z,2.33
2019-03-06T18:10:41.052Z,2.53
2019-03-06T18:13:21.598Z,2.23
2019-03-06T18:16:02.630Z,2.00
2019-03-06T18:18:43.546Z,2.50
2019-03-06T18:21:24.362Z,2.20
2019-03-06T18:24:04.985Z,2.30
2019-03-06T18:26:45.972Z,3.43
2019-03-06T18:29:26.640Z,2.90
2019-03-06T18:32:07.267Z,2.57
2019-03-06T18:34:48.391Z,3.40
2019-03-06T18:37:29.024Z,1.90
2019-03-06T18:40:09.520Z,2.37
2019-03-06T18:42:37.988Z,1.87
2019-03-06T18:45:25.815Z,2.57
2019-03-06T18:48:13.676Z,2.37
2019-03-06T18:51:01.439Z,1.90
2019-03-06T18:53:49.214Z,2.03
2019-03-06T18:56:29.731Z,2.13
2019-03-06T18:59:10.208Z,2.47
2019-03-06T19:01:50.859Z,1.80
2019-03-06T19:04:31.385Z,2.40
2019-03-06T19:07:12.332Z,2.03
2019-03-06T19:09:53.155Z,2.27
2019-03-06T19:12:33.925Z,2.00
2019-03-06T19:15:14.315Z,1.70
2019-03-06T19:17:55.020Z,1.83
2019-03-06T19:20:35.475Z,2.03
2019-03-06T19:23:16.444Z,2.40
2019-03-06T19:25:56.841Z,2.60
2019-03-06T19:28:37.689Z,1.83
2019-03-06T19:31:18.470Z,2.17
2019-03-06T19:33:59.459Z,1.60
2019-03-06T19:36:40.288Z,2.17
2019-03-06T19:39:22.442Z,2.47
2019-03-06T19:42:03.197Z,2.40
2019-03-06T19:44:44.234Z,2.00
2019-03-06T19:47:24.884Z,1.63
2019-03-06T19:50:05.673Z,2.30
2019-03-06T19:52:46.652Z,2.10
2019-03-06T19:55:27.496Z,2.03
2019-03-06T19:58:08.491Z,1.80
2019-03-06T20:00:49.175Z,2.23
2019-03-06T20:03:29.650Z,2.27
2019-03-06T20:06:10.320Z,1.87
2019-03-06T20:08:50.560Z,2.00
2019-03-06T20:11:18.983Z,2.33
2019-03-06T20:14:07.000Z,2.23
2019-03-06T20:16:54.779Z,1.73
2019-03-06T20:19:42.555Z,2.27
2019-03-06T20:22:30.404Z,2.27
2019-03-06T20:25:18.965Z,2.27
2019-03-06T20:31:00.512Z,2.33
2019-03-06T20:33:48.368Z,1.80
2019-03-06T20:36:36.187Z,1.80
2019-03-06T20:39:25.695Z,2.93
2019-03-06T20:42:13.485Z,2.27
2019-03-06T20:45:01.322Z,2.57
2019-03-06T20:47:49.159Z,2.13
2019-03-06T20:50:36.949Z,2.40
2019-03-06T20:53:24.806Z,2.77
2019-03-06T20:56:05.392Z,2.20
2019-03-06T20:58:46.080Z,2.30
2019-03-06T21:01:27.071Z,2.90
2019-03-06T21:04:07.822Z,2.50
2019-03-06T21:06:49.059Z,2.83
2019-03-06T21:09:30.092Z,2.20
2019-03-06T21:12:11.119Z,2.80
2019-03-06T21:14:51.670Z,2.53
2019-03-06T21:17:34.724Z,1.93
2019-03-06T21:20:15.543Z,2.60
2019-03-06T21:22:56.531Z,1.43
2019-03-06T21:25:37.412Z,2.70
2019-03-06T21:28:18.087Z,2.70
2019-03-06T21:30:58.786Z,2.00
2019-03-06T21:33:39.781Z,2.33
2019-03-06T21:36:20.547Z,2.20
2019-03-06T21:39:01.466Z,4.77
2019-03-06T21:41:41.805Z,5.60
2019-03-06T21:44:23.771Z,3.53
2019-03-06T21:47:04.438Z,2.53
2019-03-06T21:49:44.869Z,2.30
2019-03-06T21:52:13.416Z,2.70
2019-03-06T21:54:53.658Z,10.90
2019-03-06T21:57:34.992Z,4.90
2019-03-06T22:00:06.756Z,3.37
2019-03-06T22:02:36.289Z,9.73
2019-03-06T22:05:05.855Z,3.40
2019-03-06T22:07:34.361Z,3.80
2019-03-06T22:10:04.324Z,3.83
2019-03-06T22:12:32.788Z,3.13
2019-03-06T22:15:01.421Z,3.57
2019-03-06T22:17:29.905Z,2.63
2019-03-06T22:19:58.321Z,3.20
2019-03-06T22:22:26.754Z,3.40
2019-03-06T22:24:55.270Z,2.63
2019-03-06T22:27:23.750Z,3.40
2019-03-06T22:29:52.433Z,2.60
2019-03-06T22:32:20.932Z,2.50
2019-03-06T22:34:49.337Z,2.20
2019-03-06T22:37:17.765Z,3.20
2019-03-06T22:39:46.261Z,2.77
2019-03-06T22:42:14.766Z,2.70
2019-03-06T22:44:43.182Z,3.63
2019-03-06T22:47:11.677Z,2.80
2019-03-06T22:49:40.094Z,3.03
2019-03-06T22:52:08.597Z,3.07
2019-03-06T22:54:37.015Z,3.60
2019-03-06T22:57:05.429Z,4.13
2019-03-06T22:59:33.878Z,3.60
2019-03-06T23:02:02.541Z,4.03
2019-03-06T23:04:31.134Z,2.83
2019-03-06T23:06:59.550Z,3.50
2019-03-06T23:09:27.984Z,3.10
2019-03-06T23:11:56.479Z,3.23
2019-03-06T23:14:25.029Z,3.23
2019-03-06T23:16:53.441Z,2.90
2019-03-06T23:19:21.857Z,2.53
2019-03-06T23:21:50.277Z,3.10
2019-03-06T23:24:18.736Z,3.20
2019-03-06T23:26:47.223Z,4.03
2019-03-06T23:29:15.656Z,3.73
2019-03-06T23:31:44.144Z,3.10
2019-03-06T23:34:12.638Z,3.40
2019-03-06T23:36:41.061Z,3.13
2019-03-06T23:39:13.777Z,3.60
2019-03-06T23:41:42.248Z,3.20
2019-03-06T23:44:10.755Z,3.63
2019-03-06T23:46:39.241Z,3.40
2019-03-06T23:49:07.743Z,2.93
2019-03-06T23:51:37.794Z,4.10
2019-03-06T23:54:06.316Z,3.70
2019-03-06T23:56:34.788Z,3.13
2019-03-06T23:59:03.560Z,3.50
